TRPG METAR and TAF | Updated Today

TRPG METAR

John A. Osborne Airport

Observation time: 8:19 hr. ago

TRPG 072200Z 09013KT 040V140 9999 FEW021 26/22 Q1015

Need help? Read our tutorial on how to read METARs or read the parsed version below.

John A. Osborne Airport (TRPG) METAR

  • Weather conditions on Tue, 07 Dec 2021 22:00:00 +0000 (8:19 hr. ago):
  • Present conditions: Dry
  • Clouds: A few at 640 meters
  • Visibility: Greater than 10 km
  • Wind: 90 degrees at 13 knots
  • Temperature: 26 celsius
  • Dew point: 22 celsius
  • Pressure: 1015 millibars
  • Remarks: None


Useful to know...

TRPG TAF

John A. Osborne Airport

TAF TRPG 071149Z 0712/0812 07015KT 9999 SCT020 PROB30 TEMPO 0804/0812 07015G25KT SHRA
Observation time: 18:30 hr. ago
Need help? Read our tutorial on how to read TAFs or read the parsed version below.

Parsed version of TAF for John A. Osborne Airport (TRPG)

  • From 07 December at 12:00 UTC, to day 08 of the month at 12:00 UTC
  • Clouds: Scattered at 610 meters
  • Visibility: Greater than 10 km
  • Wind: 70 degrees at 15
  • Expected to arise temporarily, from 08 December at 04:00 UTC, to day 08 of the month at 12:00 UTC
    Probability of 30%
  • Wind: 70 degrees at 15
  • Other: Showers of rain